Main page
METAR-TAF:

METAR-TAF

Airports :

Frontone, Italy

latitude: 43-31N, longitude: 012-44E, elevation: 570 m

Current weather observation

The report was made 50 minutes ago, at 11:55 UTC
Wind 4 kt from the East
Temperature 17°C
Humidity 72%
Pressure 1016 hPa
Visibility 10 km or more
Scattered clouds at a height of 1500 ft
Scattered clouds at a height of 3300 ft

METAR: LIVF 181155Z 10004KT 9999 SCT015 SCT033 17/12 Q1016 RMK BKN MON S W CIME INC NC VAL NIL VIS MIN 9999

Time: 14:45 (12:45 UTC)


TAF: missing

Weather observations and forecasts of more than 4000 airports (METAR and TAF reports).

The available stations are represented by yellow and red dots on the map.

Hover mouse over dot to see the name of the station.

Then click to see weather observations and forecasts.

To change the map : click on the green buttons with a black cross to zoom in, on the green button with a dash to zoom out, or on the green arrows for adjacent maps.


METAR-TAF: